SVMG/PMV METAR and TAF weather

Enter ICAO airport designator
Station Type Date Time Source
SVMG METAR 2019/04/18 10:00 UTC NOAA

SVMG 181000Z /////KT 9999 FEW010 25/24 Q1013 NOSIG


Station Type Date Time Source
SVMG Decoded METAR 2019/04/18 10:00 UTC NOAA

Margarita / Del Carib, Venezuela (SVMG) 10-55N 063-59W
Apr 18, 2019 - 06:00 AM EDT / 2019.04.18 1000 UTC
Visibility: greater than 7 mile(s):0
Sky conditions: mostly clear
Temperature: 77 F (25 C)
Dew Point: 75 F (24 C)
Relative Humidity: 94%
Pressure (altimeter): 29.91 in. Hg (1013 hPa)
ob: SVMG 181000Z /////KT 9999 FEW010 25/24 Q1013 NOSIG
cycle: 10

Station Type Date Time Source
SVMG TAF 2019/04/18 12:03 UTC NOAA

TAF SVMG 181000Z 1812/1912 07011KT 9999 SCT016 TX30/18Z TN24/08Z
BECMG 1812/1816 07013KT

Example: see airport list